createdAt,value
2019-01-12T00:02:07.756Z,11.20
2019-01-12T00:04:37.008Z,12.23
2019-01-12T00:07:06.549Z,12.53
2019-01-12T00:09:35.995Z,11.00
2019-01-12T00:12:05.988Z,11.40
2019-01-12T00:14:38.687Z,10.93
2019-01-12T00:17:08.427Z,10.97
2019-01-12T00:19:38.407Z,11.07
2019-01-12T00:22:08.911Z,11.23
2019-01-12T00:24:38.670Z,12.93
2019-01-12T00:27:08.470Z,12.40
2019-01-12T00:29:38.369Z,12.63
2019-01-12T00:32:08.268Z,12.17
2019-01-12T00:34:38.128Z,12.37
2019-01-12T00:37:07.288Z,12.03
2019-01-12T00:39:37.227Z,11.67
2019-01-12T00:42:26.327Z,11.20
2019-01-12T00:44:56.128Z,11.43
2019-01-12T00:47:25.868Z,11.57
2019-01-12T00:49:55.448Z,10.90
2019-01-12T00:52:25.269Z,10.40
2019-01-12T00:55:01.389Z,11.00
2019-01-12T00:57:31.057Z,12.57
2019-01-12T01:00:01.376Z,12.67
2019-01-12T01:02:31.681Z,13.30
2019-01-12T01:05:01.108Z,13.57
2019-01-12T01:07:31.279Z,13.00
2019-01-12T01:10:00.941Z,12.53
2019-01-12T01:12:30.401Z,12.73
2019-01-12T01:15:00.180Z,12.80
2019-01-12T01:17:30.221Z,12.20
2019-01-12T01:19:59.342Z,12.50
2019-01-12T01:22:29.122Z,11.77
2019-01-12T01:24:58.561Z,12.37
2019-01-12T01:27:28.681Z,12.53
2019-01-12T01:29:58.340Z,12.13
2019-01-12T01:32:27.881Z,11.97
2019-01-12T01:34:57.361Z,12.80
2019-01-12T01:37:26.720Z,12.33
2019-01-12T01:39:56.101Z,11.53
2019-01-12T01:42:25.641Z,12.27
2019-01-12T01:44:55.019Z,12.03
2019-01-12T01:47:24.421Z,10.70
2019-01-12T01:49:53.940Z,11.13
2019-01-12T01:52:23.041Z,11.43
2019-01-12T01:54:52.948Z,11.20
2019-01-12T01:57:22.880Z,10.63
2019-01-12T01:59:52.020Z,11.67
2019-01-12T02:02:21.662Z,12.13
2019-01-12T02:04:51.196Z,10.63
2019-01-12T02:07:20.316Z,11.37
2019-01-12T02:09:50.161Z,10.30
2019-01-12T02:12:19.617Z,9.37
2019-01-12T02:14:51.337Z,9.17
2019-01-12T02:17:20.999Z,9.47
2019-01-12T02:19:51.536Z,9.77
2019-01-12T02:22:21.477Z,9.33
2019-01-12T02:24:59.961Z,9.80
2019-01-12T02:27:26.156Z,8.83
2019-01-12T02:29:55.459Z,9.23
2019-01-12T02:32:24.898Z,9.83
2019-01-12T02:34:54.237Z,9.23
2019-01-12T02:37:24.456Z,10.30
2019-01-12T02:39:54.238Z,10.63
2019-01-12T02:42:23.776Z,9.97
2019-01-12T02:44:53.037Z,9.60
2019-01-12T02:47:22.156Z,8.93
2019-01-12T02:49:51.517Z,8.00
2019-01-12T02:52:21.817Z,8.47
2019-01-12T02:54:55.056Z,9.43
2019-01-12T02:57:24.356Z,7.10
2019-01-12T02:59:53.916Z,8.73
2019-01-12T03:02:23.761Z,6.83
2019-01-12T03:04:53.121Z,7.87
2019-01-12T03:07:22.881Z,6.57
2019-01-12T03:09:52.599Z,7.60
2019-01-12T03:12:22.000Z,7.73
2019-01-12T03:14:51.561Z,6.67
2019-01-12T03:17:20.879Z,7.60
2019-01-12T03:19:50.143Z,8.80
2019-01-12T03:22:19.358Z,7.53
2019-01-12T03:24:49.138Z,8.17
2019-01-12T03:27:24.637Z,8.43
2019-01-12T03:29:53.857Z,8.87
2019-01-12T03:32:23.237Z,8.40
2019-01-12T03:34:52.638Z,9.07
2019-01-12T03:37:21.739Z,8.50
2019-01-12T03:39:51.378Z,8.83
2019-01-12T03:42:22.519Z,8.73
2019-01-12T03:44:51.897Z,8.23
2019-01-12T03:47:23.976Z,7.50
2019-01-12T03:49:53.817Z,7.97
2019-01-12T03:52:24.316Z,8.70
2019-01-12T03:54:53.657Z,8.33
2019-01-12T03:57:24.478Z,9.07
2019-01-12T03:59:54.117Z,8.80
2019-01-12T04:02:23.743Z,10.33
2019-01-12T04:04:54.102Z,9.60
2019-01-12T04:07:23.503Z,9.13
2019-01-12T04:09:52.943Z,8.90
2019-01-12T04:12:22.505Z,8.93
2019-01-12T04:14:51.823Z,8.57
2019-01-12T04:17:21.623Z,8.70
2019-01-12T04:19:53.285Z,8.13
2019-01-12T04:22:22.716Z,8.13
2019-01-12T04:24:52.696Z,7.17
2019-01-12T04:27:22.477Z,6.37
2019-01-12T04:29:52.358Z,6.50
2019-01-12T04:32:22.237Z,6.60
2019-01-12T04:34:53.155Z,7.33
2019-01-12T04:37:22.826Z,6.43
2019-01-12T04:39:52.316Z,6.63
2019-01-12T04:42:21.696Z,7.53
2019-01-12T04:44:51.336Z,6.57
2019-01-12T04:47:22.197Z,7.00
2019-01-12T04:49:51.356Z,7.87
2019-01-12T04:52:20.758Z,6.53
2019-01-12T04:54:51.177Z,6.83
2019-01-12T04:57:20.775Z,6.90
2019-01-12T04:59:49.856Z,6.80
2019-01-12T05:02:19.308Z,7.10
2019-01-12T05:04:48.646Z,6.57
2019-01-12T05:07:18.425Z,7.73
2019-01-12T05:09:47.825Z,6.87
2019-01-12T05:12:17.573Z,7.60
2019-01-12T05:14:47.765Z,7.13
2019-01-12T05:17:17.126Z,6.50
2019-01-12T05:19:46.648Z,6.50
2019-01-12T05:22:16.086Z,7.33
2019-01-12T05:24:45.645Z,7.30
2019-01-12T05:27:14.896Z,7.57
2019-01-12T05:29:44.706Z,7.90
2019-01-12T05:32:16.047Z,8.37
2019-01-12T05:34:45.246Z,7.20
2019-01-12T05:37:14.427Z,7.20
2019-01-12T05:39:47.885Z,7.77
2019-01-12T05:42:20.401Z,7.90
2019-01-12T05:44:49.898Z,8.37
2019-01-12T05:47:19.518Z,8.07
2019-01-12T05:49:49.159Z,9.10
2019-01-12T05:52:21.778Z,9.43
2019-01-12T05:54:51.181Z,10.20
2019-01-12T05:57:20.169Z,8.70
2019-01-12T05:59:50.100Z,8.50
2019-01-12T06:02:19.355Z,8.57
2019-01-12T06:04:48.876Z,8.37
2019-01-12T06:07:18.195Z,9.57
2019-01-12T06:09:49.704Z,8.83
2019-01-12T06:12:19.784Z,9.50
2019-01-12T06:14:51.718Z,37.57
2019-01-12T06:17:20.939Z,22.77
2019-01-12T06:19:51.096Z,16.17
2019-01-12T06:22:23.316Z,17.50
2019-01-12T06:24:52.876Z,12.33
2019-01-12T06:27:23.837Z,10.43
2019-01-12T06:30:07.999Z,10.00
2019-01-12T06:32:37.816Z,11.63
2019-01-12T06:35:09.077Z,11.57
2019-01-12T06:37:38.636Z,11.93
2019-01-12T06:40:10.937Z,15.57
2019-01-12T06:42:40.459Z,13.40
2019-01-12T06:45:17.917Z,11.07
2019-01-12T06:47:47.201Z,12.07
2019-01-12T06:50:18.875Z,10.17
2019-01-12T06:52:48.039Z,9.97
2019-01-12T06:55:17.396Z,8.90
2019-01-12T06:57:48.615Z,9.97
2019-01-12T07:00:19.568Z,8.13
2019-01-12T07:02:50.573Z,9.13
2019-01-12T07:05:20.308Z,13.23
2019-01-12T07:07:52.537Z,11.37
2019-01-12T07:10:22.719Z,9.43
2019-01-12T07:12:52.018Z,10.27
2019-01-12T07:15:21.244Z,10.47
2019-01-12T07:17:53.927Z,10.97
2019-01-12T07:20:23.436Z,10.53
2019-01-12T07:22:52.676Z,9.50
2019-01-12T07:25:21.784Z,8.30
2019-01-12T07:27:51.016Z,7.60
2019-01-12T07:30:22.095Z,7.37
2019-01-12T07:32:56.358Z,8.13
2019-01-12T07:35:28.555Z,8.43
2019-01-12T07:37:57.757Z,6.17
2019-01-12T07:40:27.257Z,6.93
2019-01-12T07:42:56.397Z,6.70
2019-01-12T07:45:26.395Z,7.70
2019-01-12T07:47:56.115Z,6.87
2019-01-12T07:50:25.898Z,6.87
2019-01-12T07:52:58.675Z,8.83
2019-01-12T07:55:28.297Z,10.37
2019-01-12T07:57:58.398Z,9.93
2019-01-12T08:00:30.726Z,11.30
2019-01-12T08:03:00.725Z,10.40
2019-01-12T08:05:54.259Z,9.80
2019-01-12T08:08:23.340Z,9.47
2019-01-12T08:10:56.019Z,8.13
2019-01-12T08:13:25.416Z,11.10
2019-01-12T08:15:55.287Z,10.53
2019-01-12T08:18:24.269Z,12.50
2019-01-12T08:20:55.858Z,13.63
2019-01-12T08:23:24.852Z,12.63
2019-01-12T08:25:53.811Z,12.27
2019-01-12T08:28:23.386Z,10.43
2019-01-12T08:30:52.963Z,9.10
2019-01-12T08:33:25.445Z,9.97
2019-01-12T08:35:55.123Z,11.60
2019-01-12T08:38:24.436Z,8.80
2019-01-12T08:40:53.596Z,9.73
2019-01-12T08:43:23.037Z,10.97
2019-01-12T08:45:51.964Z,11.13
2019-01-12T08:48:21.263Z,9.80
2019-01-12T08:50:53.446Z,9.37
2019-01-12T08:53:23.622Z,9.67
2019-01-12T08:55:53.281Z,10.37
2019-01-12T08:58:22.861Z,9.00
2019-01-12T09:00:52.480Z,9.40
2019-01-12T09:03:22.422Z,11.27
2019-01-12T09:05:51.738Z,11.00
2019-01-12T09:08:20.897Z,10.13
2019-01-12T09:10:50.297Z,8.93
2019-01-12T09:13:19.847Z,8.90
2019-01-12T09:15:48.935Z,9.13
2019-01-12T09:18:17.999Z,8.50
2019-01-12T09:20:47.492Z,8.47
2019-01-12T09:23:16.784Z,8.23
2019-01-12T09:25:49.782Z,8.30
2019-01-12T09:28:19.505Z,8.50
2019-01-12T09:30:48.797Z,6.67
2019-01-12T09:33:17.824Z,7.27
2019-01-12T09:35:50.582Z,7.90
2019-01-12T09:38:19.662Z,7.00
2019-01-12T09:40:49.044Z,6.30
2019-01-12T09:43:18.123Z,5.87
2019-01-12T09:45:51.162Z,5.67
2019-01-12T09:48:20.407Z,5.33
2019-01-12T09:50:49.423Z,4.30
2019-01-12T09:53:18.523Z,5.00
2019-01-12T09:55:48.203Z,4.73
2019-01-12T09:58:17.562Z,4.70
2019-01-12T10:00:46.706Z,4.80
2019-01-12T10:03:16.122Z,4.93
2019-01-12T10:05:49.163Z,5.40
2019-01-12T10:08:18.661Z,5.10
2019-01-12T10:10:47.996Z,5.20
2019-01-12T10:13:17.438Z,6.70
2019-01-12T10:15:46.496Z,5.90
2019-01-12T10:18:17.876Z,6.03
2019-01-12T10:20:47.106Z,6.70
2019-01-12T10:23:18.082Z,6.30
2019-01-12T10:25:48.148Z,5.80
2019-01-12T10:28:19.697Z,6.00
2019-01-12T10:30:51.226Z,5.37
2019-01-12T10:33:21.110Z,6.10
2019-01-12T10:35:50.220Z,6.57
2019-01-12T10:38:26.166Z,6.50
2019-01-12T10:40:55.199Z,7.27
2019-01-12T10:43:25.856Z,6.37
2019-01-12T10:45:54.939Z,6.90
2019-01-12T10:48:24.194Z,5.47
2019-01-12T10:50:53.400Z,5.70
2019-01-12T10:53:22.496Z,4.97
2019-01-12T10:55:54.981Z,5.93
2019-01-12T10:58:24.375Z,6.40
2019-01-12T11:00:53.886Z,6.17
2019-01-12T11:03:24.622Z,5.67
2019-01-12T11:05:53.726Z,6.40
2019-01-12T11:08:22.808Z,5.87
2019-01-12T11:10:53.502Z,6.13
2019-01-12T11:13:23.261Z,5.57
2019-01-12T11:15:52.802Z,5.73
2019-01-12T11:18:22.137Z,5.63
2019-01-12T11:20:51.376Z,6.60
2019-01-12T11:23:20.456Z,6.30
2019-01-12T11:25:49.817Z,6.07
2019-01-12T11:28:19.881Z,6.87
2019-01-12T11:30:49.281Z,6.67
2019-01-12T11:33:18.382Z,6.10
2019-01-12T11:38:45.743Z,5.77
2019-01-12T11:41:15.043Z,5.90
2019-01-12T11:43:44.823Z,5.40
2019-01-12T11:46:14.580Z,5.77
2019-01-12T11:48:43.903Z,5.80
2019-01-12T11:51:13.762Z,5.57
2019-01-12T11:53:43.802Z,4.67
2019-01-12T11:56:13.502Z,4.53
2019-01-12T11:58:43.082Z,5.57
2019-01-12T12:01:12.169Z,5.60
2019-01-12T12:03:42.052Z,5.70
2019-01-12T12:06:11.365Z,5.97
2019-01-12T12:08:41.144Z,5.37
2019-01-12T12:11:10.725Z,5.93
2019-01-12T12:13:40.155Z,6.43
2019-01-12T12:16:09.256Z,5.97
2019-01-12T12:18:38.932Z,6.03
2019-01-12T12:21:07.957Z,6.17
2019-01-12T12:23:36.996Z,6.67
2019-01-12T12:26:06.096Z,7.03
2019-01-12T12:28:35.631Z,6.10
2019-01-12T12:31:07.156Z,6.17
2019-01-12T12:33:36.336Z,6.20
2019-01-12T12:36:10.890Z,5.70
2019-01-12T12:38:40.123Z,6.67
2019-01-12T12:41:09.284Z,6.23
2019-01-12T12:43:38.584Z,6.77
2019-01-12T12:46:07.982Z,6.47
2019-01-12T12:48:37.346Z,6.47
2019-01-12T12:51:08.999Z,6.13
2019-01-12T12:53:38.831Z,6.57
2019-01-12T12:56:08.298Z,7.10
2019-01-12T12:58:38.118Z,7.33
2019-01-12T13:01:09.280Z,7.40
2019-01-12T13:03:41.361Z,9.73
2019-01-12T13:06:11.140Z,8.50
2019-01-12T13:08:48.275Z,8.17
2019-01-12T13:11:12.318Z,8.27
2019-01-12T13:13:42.758Z,8.00
2019-01-12T13:16:11.910Z,8.17
2019-01-12T13:18:41.800Z,7.77
2019-01-12T13:21:11.299Z,8.30
2019-01-12T13:23:41.519Z,8.17
2019-01-12T13:26:11.379Z,7.77
2019-01-12T13:28:41.018Z,8.60
2019-01-12T13:31:12.496Z,8.67
2019-01-12T13:33:41.736Z,8.37
2019-01-12T13:36:13.116Z,8.33
2019-01-12T13:38:43.095Z,7.93
2019-01-12T13:41:15.896Z,8.10
2019-01-12T13:43:52.095Z,7.47
2019-01-12T13:46:22.796Z,8.23
2019-01-12T13:49:01.616Z,7.53
2019-01-12T13:51:31.519Z,8.93
2019-01-12T13:54:01.116Z,8.80
2019-01-12T13:56:30.437Z,8.60
2019-01-12T13:58:59.557Z,8.40
2019-01-12T14:01:29.302Z,7.53
2019-01-12T14:04:00.021Z,9.07
2019-01-12T14:06:30.079Z,8.00
2019-01-12T14:08:59.600Z,9.83
2019-01-12T14:11:33.778Z,7.80
2019-01-12T14:14:04.117Z,8.07
2019-01-12T14:16:33.598Z,7.73
2019-01-12T14:19:03.596Z,7.63
2019-01-12T14:21:34.319Z,7.53
2019-01-12T14:24:06.175Z,7.47
2019-01-12T14:26:36.476Z,8.50
2019-01-12T14:29:09.480Z,8.17
2019-01-12T14:31:39.180Z,7.77
2019-01-12T14:34:08.483Z,8.30
2019-01-12T14:36:37.799Z,8.70
2019-01-12T14:39:10.063Z,10.07
2019-01-12T14:41:39.141Z,8.70
2019-01-12T14:44:09.226Z,9.17
2019-01-12T14:46:38.509Z,9.90
2019-01-12T14:49:08.227Z,9.40
2019-01-12T14:51:37.370Z,9.57
2019-01-12T14:54:06.606Z,10.13
2019-01-12T14:56:36.068Z,10.70
2019-01-12T14:59:05.679Z,11.43
2019-01-12T15:01:34.846Z,11.80
2019-01-12T15:04:05.649Z,11.40
2019-01-12T15:06:35.231Z,11.33
2019-01-12T15:09:07.407Z,11.40
2019-01-12T15:11:37.159Z,9.83
2019-01-12T15:14:06.941Z,10.20
2019-01-12T15:16:36.762Z,11.57
2019-01-12T15:19:06.901Z,18.07
2019-01-12T15:21:37.641Z,12.40
2019-01-12T15:24:06.781Z,12.40
2019-01-12T15:26:35.969Z,13.03
2019-01-12T15:29:05.160Z,12.57
2019-01-12T15:31:34.722Z,11.40
2019-01-12T15:34:05.359Z,11.70
2019-01-12T15:36:34.959Z,12.90
2019-01-12T15:39:05.516Z,11.97
2019-01-12T15:41:36.070Z,12.10
2019-01-12T15:44:06.757Z,10.67
2019-01-12T15:46:36.776Z,11.30
2019-01-12T15:49:09.139Z,12.70
2019-01-12T15:51:38.365Z,11.87
2019-01-12T15:54:08.023Z,12.30
2019-01-12T15:56:37.217Z,11.97
2019-01-12T15:59:06.734Z,11.33
2019-01-12T16:01:35.881Z,11.90
2019-01-12T16:04:05.241Z,11.20
2019-01-12T16:06:37.762Z,11.03
2019-01-12T16:09:09.676Z,12.77
2019-01-12T16:11:39.137Z,10.70
2019-01-12T16:14:08.237Z,12.90
2019-01-12T16:16:40.782Z,12.53
2019-01-12T16:19:09.862Z,11.63
2019-01-12T16:21:39.275Z,12.83
2019-01-12T16:24:10.349Z,12.57
2019-01-12T16:26:40.045Z,13.63
2019-01-12T16:29:09.104Z,12.90
2019-01-12T16:31:38.759Z,16.37
2019-01-12T16:34:08.001Z,13.27
2019-01-12T16:36:37.880Z,13.30
2019-01-12T16:39:08.976Z,14.30
2019-01-12T16:41:38.039Z,16.80
2019-01-12T16:44:08.419Z,13.60
2019-01-12T16:46:37.779Z,13.60
2019-01-12T16:49:07.124Z,12.00
2019-01-12T16:51:36.489Z,13.40
2019-01-12T16:54:06.089Z,13.87
2019-01-12T16:56:35.864Z,13.23
2019-01-12T16:59:05.068Z,11.97
2019-01-12T17:01:34.619Z,10.60
2019-01-12T17:04:04.382Z,10.80
2019-01-12T17:06:33.540Z,11.57
2019-01-12T17:09:03.280Z,13.33
2019-01-12T17:11:35.098Z,12.87
2019-01-12T17:14:04.682Z,11.37
2019-01-12T17:16:33.812Z,11.87
2019-01-12T17:19:02.983Z,12.73
2019-01-12T17:21:32.333Z,12.67
2019-01-12T17:24:01.767Z,14.23
2019-01-12T17:26:31.067Z,12.30
2019-01-12T17:29:00.906Z,12.03
2019-01-12T17:31:30.642Z,12.70
2019-01-12T17:33:59.667Z,17.90
2019-01-12T17:36:28.741Z,15.90
2019-01-12T17:38:57.920Z,16.07
2019-01-12T17:41:27.198Z,15.07
2019-01-12T17:43:57.682Z,14.87
2019-01-12T17:46:28.043Z,14.10
2019-01-12T17:48:57.319Z,15.53
2019-01-12T17:51:26.499Z,16.27
2019-01-12T17:53:57.039Z,13.60
2019-01-12T17:56:25.981Z,13.33
2019-01-12T17:58:55.361Z,13.67
2019-01-12T18:01:24.893Z,13.50
2019-01-12T18:03:54.207Z,13.07
2019-01-12T18:06:26.280Z,12.97
2019-01-12T18:08:56.064Z,12.53
2019-01-12T18:11:25.531Z,13.13
2019-01-12T18:13:56.655Z,12.83
2019-01-12T18:16:30.393Z,13.67
2019-01-12T18:18:59.847Z,13.17
2019-01-12T18:21:30.146Z,15.10
2019-01-12T18:23:59.424Z,21.10
2019-01-12T18:26:29.697Z,22.50
2019-01-12T18:28:59.923Z,18.60
2019-01-12T18:31:30.765Z,14.50
2019-01-12T18:34:00.528Z,14.97
2019-01-12T18:36:29.625Z,14.20
2019-01-12T18:38:59.139Z,13.40
2019-01-12T18:41:28.960Z,12.93
2019-01-12T18:44:01.942Z,16.23
2019-01-12T18:46:30.996Z,16.13
2019-01-12T18:49:00.458Z,16.97
2019-01-12T18:51:32.462Z,17.13
2019-01-12T18:54:01.917Z,16.97
2019-01-12T18:56:31.104Z,14.60
2019-01-12T18:59:00.515Z,13.50
2019-01-12T19:01:30.262Z,14.23
2019-01-12T19:04:00.209Z,13.13
2019-01-12T19:06:29.658Z,12.27
2019-01-12T19:08:59.461Z,13.17
2019-01-12T19:11:30.344Z,13.43
2019-01-12T19:13:59.641Z,13.37
2019-01-12T19:16:29.344Z,12.83
2019-01-12T19:19:01.883Z,12.63
2019-01-12T19:21:31.529Z,11.83
2019-01-12T19:24:00.641Z,14.10
2019-01-12T19:26:30.361Z,13.60
2019-01-12T19:29:06.148Z,13.00
2019-01-12T19:31:31.126Z,12.57
2019-01-12T19:34:00.299Z,13.77
2019-01-12T19:36:30.223Z,15.33
2019-01-12T19:39:01.281Z,14.37
2019-01-12T19:41:30.498Z,13.97
2019-01-12T19:43:59.492Z,12.70
2019-01-12T19:46:28.459Z,13.23
2019-01-12T19:49:01.500Z,13.63
2019-01-12T19:51:31.243Z,14.20
2019-01-12T19:54:00.681Z,15.30
2019-01-12T19:56:30.049Z,16.77
2019-01-12T19:58:59.392Z,16.90
2019-01-12T20:01:28.786Z,15.57
2019-01-12T20:04:01.279Z,13.97
2019-01-12T20:06:30.424Z,14.30
2019-01-12T20:09:03.125Z,14.80
2019-01-12T20:11:32.855Z,15.30
2019-01-12T20:14:05.364Z,14.27
2019-01-12T20:16:34.766Z,13.53
2019-01-12T20:19:05.139Z,16.63
2019-01-12T20:21:34.728Z,15.93
2019-01-12T20:24:04.055Z,15.47
2019-01-12T20:26:33.623Z,14.70
2019-01-12T20:29:02.786Z,14.53
2019-01-12T20:31:52.962Z,15.43
2019-01-12T20:34:24.956Z,15.40
2019-01-12T20:37:28.986Z,17.73
2019-01-12T20:40:10.609Z,15.17
2019-01-12T20:43:06.969Z,14.80
2019-01-12T20:45:45.476Z,14.90
2019-01-12T20:48:26.236Z,15.13
2019-01-12T20:51:16.505Z,15.37
2019-01-12T20:54:06.439Z,14.57
2019-01-12T20:56:47.799Z,13.40
2019-01-12T20:59:38.319Z,14.17
2019-01-12T21:02:22.444Z,13.83
2019-01-12T21:04:54.724Z,14.13
2019-01-12T21:07:35.435Z,14.60
2019-01-12T21:10:10.698Z,13.17
2019-01-12T21:13:05.987Z,14.20
2019-01-12T21:15:55.980Z,13.63
2019-01-12T21:18:25.364Z,13.20
2019-01-12T21:20:54.660Z,14.00
2019-01-12T21:23:23.896Z,13.83
2019-01-12T21:25:53.303Z,14.50
2019-01-12T21:28:22.312Z,12.73
2019-01-12T21:30:51.966Z,13.53
2019-01-12T21:33:22.605Z,14.17
2019-01-12T21:35:52.381Z,12.77
2019-01-12T21:38:22.021Z,13.83
2019-01-12T21:40:52.313Z,14.03
2019-01-12T21:43:21.306Z,13.33
2019-01-12T21:45:53.305Z,12.73
2019-01-12T21:48:23.246Z,13.13
2019-01-12T21:50:52.446Z,12.80
2019-01-12T21:53:22.004Z,12.83
2019-01-12T21:55:51.485Z,12.83
2019-01-12T21:58:20.925Z,13.23
2019-01-12T22:00:50.181Z,13.20
2019-01-12T22:03:20.083Z,12.63
2019-01-12T22:05:49.501Z,15.23
2019-01-12T22:08:19.201Z,14.67
2019-01-12T22:10:48.361Z,14.83
2019-01-12T22:13:17.442Z,14.77
2019-01-12T22:15:46.660Z,14.43
2019-01-12T22:18:16.026Z,13.43
2019-01-12T22:20:46.660Z,14.17
2019-01-12T22:23:18.010Z,17.57
2019-01-12T22:25:50.214Z,20.13
2019-01-12T22:28:20.329Z,19.53
2019-01-12T22:30:50.323Z,20.23
2019-01-12T22:33:23.394Z,19.00
2019-01-12T22:35:54.655Z,18.07
2019-01-12T22:38:25.074Z,19.33
2019-01-12T22:40:56.832Z,18.43
2019-01-12T22:43:26.638Z,18.67
2019-01-12T22:45:56.796Z,18.77
2019-01-12T22:48:26.956Z,20.73
2019-01-12T22:50:56.638Z,21.50
2019-01-12T22:53:26.977Z,23.63
2019-01-12T22:55:56.797Z,22.93
2019-01-12T22:58:25.926Z,23.33
2019-01-12T23:01:05.800Z,23.90
2019-01-12T23:03:35.304Z,21.27
2019-01-12T23:06:04.580Z,22.83
2019-01-12T23:08:33.855Z,22.20
2019-01-12T23:11:03.715Z,22.10
2019-01-12T23:13:36.537Z,23.53
2019-01-12T23:16:06.675Z,22.00
2019-01-12T23:18:36.135Z,22.57
2019-01-12T23:21:05.935Z,20.60
2019-01-12T23:23:35.255Z,21.40
2019-01-12T23:26:06.097Z,19.20
2019-01-12T23:28:35.495Z,23.03
2019-01-12T23:31:05.823Z,23.37
2019-01-12T23:33:35.636Z,20.73
2019-01-12T23:36:05.475Z,20.83
2019-01-12T23:38:34.756Z,20.43
2019-01-12T23:41:03.996Z,21.53
2019-01-12T23:43:34.057Z,21.77
2019-01-12T23:46:03.556Z,20.80
2019-01-12T23:48:33.236Z,22.10
2019-01-12T23:51:21.676Z,18.90
2019-01-12T23:53:50.915Z,18.60
2019-01-12T23:56:23.375Z,20.90
2019-01-12T23:58:52.757Z,22.10
